sensor_id;sensor_type;location;lat;lon;timestamp;temperature;humidity
23562;DHT22;11959;49.418;8.728;2022-07-01T00:00:28;17.30;99.90
23562;DHT22;11959;49.418;8.728;2022-07-01T00:02:54;17.30;99.90
23562;DHT22;11959;49.418;8.728;2022-07-01T00:05:19;17.30;99.90
23562;DHT22;11959;49.418;8.728;2022-07-01T00:07:46;17.30;99.90
23562;DHT22;11959;49.418;8.728;2022-07-01T00:10:12;17.30;99.90
23562;DHT22;11959;49.418;8.728;2022-07-01T00:12:38;17.30;99.90
23562;DHT22;11959;49.418;8.728;2022-07-01T00:15:04;17.30;99.90
23562;DHT22;11959;49.418;8.728;2022-07-01T00:17:30;17.20;99.90
23562;DHT22;11959;49.418;8.728;2022-07-01T00:19:56;17.20;99.90
23562;DHT22;11959;49.418;8.728;2022-07-01T00:22:21;17.10;99.90
23562;DHT22;11959;49.418;8.728;2022-07-01T00:24:47;17.10;99.90
23562;DHT22;11959;49.418;8.728;2022-07-01T00:27:14;17.00;99.90
23562;DHT22;11959;49.418;8.728;2022-07-01T00:29:40;17.00;99.90
23562;DHT22;11959;49.418;8.728;2022-07-01T00:32:06;17.00;99.90
23562;DHT22;11959;49.418;8.728;2022-07-01T00:34:32;16.90;99.90
23562;DHT22;11959;49.418;8.728;2022-07-01T00:36:58;16.90;99.90
23562;DHT22;11959;49.418;8.728;2022-07-01T00:39:24;16.80;99.90
23562;DHT22;11959;49.418;8.728;2022-07-01T00:41:50;16.80;99.90
23562;DHT22;11959;49.418;8.728;2022-07-01T00:44:19;16.80;99.90
23562;DHT22;11959;49.418;8.728;2022-07-01T00:46:46;16.80;99.90
23562;DHT22;11959;49.418;8.728;2022-07-01T00:49:14;16.60;99.90
23562;DHT22;11959;49.418;8.728;2022-07-01T00:51:40;16.60;99.90
23562;DHT22;11959;49.418;8.728;2022-07-01T00:54:06;16.40;99.90
23562;DHT22;11959;49.418;8.728;2022-07-01T00:56:32;16.50;99.90
23562;DHT22;11959;49.418;8.728;2022-07-01T00:58:58;16.40;99.90
23562;DHT22;11959;49.418;8.728;2022-07-01T01:01:24;16.50;99.90
23562;DHT22;11959;49.418;8.728;2022-07-01T01:03:49;16.50;99.90
23562;DHT22;11959;49.418;8.728;2022-07-01T01:06:16;16.60;99.90
23562;DHT22;11959;49.418;8.728;2022-07-01T01:08:42;16.50;99.90
23562;DHT22;11959;49.418;8.728;2022-07-01T01:11:08;16.60;99.90
23562;DHT22;11959;49.418;8.728;2022-07-01T01:13:34;16.60;99.90
23562;DHT22;11959;49.418;8.728;2022-07-01T01:16:00;16.60;99.90
23562;DHT22;11959;49.418;8.728;2022-07-01T01:18:26;16.60;99.90
23562;DHT22;11959;49.418;8.728;2022-07-01T01:20:52;16.60;99.90
23562;DHT22;11959;49.418;8.728;2022-07-01T01:23:18;16.60;99.90
23562;DHT22;11959;49.418;8.728;2022-07-01T01:25:47;16.60;99.90
23562;DHT22;11959;49.418;8.728;2022-07-01T01:28:13;16.50;99.90
23562;DHT22;11959;49.418;8.728;2022-07-01T01:30:38;16.60;99.90
23562;DHT22;11959;49.418;8.728;2022-07-01T01:33:04;16.60;99.90
23562;DHT22;11959;49.418;8.728;2022-07-01T01:35:33;16.60;99.90
23562;DHT22;11959;49.418;8.728;2022-07-01T01:37:59;16.60;99.90
23562;DHT22;11959;49.418;8.728;2022-07-01T01:40:24;16.60;99.90
23562;DHT22;11959;49.418;8.728;2022-07-01T01:42:50;16.60;99.90
23562;DHT22;11959;49.418;8.728;2022-07-01T01:45:17;16.70;99.90
23562;DHT22;11959;49.418;8.728;2022-07-01T01:47:43;16.60;99.90
23562;DHT22;11959;49.418;8.728;2022-07-01T01:50:10;16.50;99.90
23562;DHT22;11959;49.418;8.728;2022-07-01T01:52:36;16.60;99.90
23562;DHT22;11959;49.418;8.728;2022-07-01T01:55:04;16.60;99.90
23562;DHT22;11959;49.418;8.728;2022-07-01T01:57:30;16.50;99.90
23562;DHT22;11959;49.418;8.728;2022-07-01T01:59:56;16.60;99.90
23562;DHT22;11959;49.418;8.728;2022-07-01T02:02:22;16.50;99.90
23562;DHT22;11959;49.418;8.728;2022-07-01T02:04:48;16.50;99.90
23562;DHT22;11959;49.418;8.728;2022-07-01T02:07:13;16.50;99.90
23562;DHT22;11959;49.418;8.728;2022-07-01T02:09:39;16.40;99.90
23562;DHT22;11959;49.418;8.728;2022-07-01T02:12:05;16.40;99.90
23562;DHT22;11959;49.418;8.728;2022-07-01T02:14:31;16.40;99.90
23562;DHT22;11959;49.418;8.728;2022-07-01T02:16:56;16.40;99.90
23562;DHT22;11959;49.418;8.728;2022-07-01T02:19:22;16.40;99.90
23562;DHT22;11959;49.418;8.728;2022-07-01T02:21:48;16.30;99.90
23562;DHT22;11959;49.418;8.728;2022-07-01T02:24:16;16.30;99.90
23562;DHT22;11959;49.418;8.728;2022-07-01T02:26:42;16.20;99.90
23562;DHT22;11959;49.418;8.728;2022-07-01T02:29:08;16.20;99.90
23562;DHT22;11959;49.418;8.728;2022-07-01T02:31:33;16.10;99.90
23562;DHT22;11959;49.418;8.728;2022-07-01T02:33:59;16.10;99.90
23562;DHT22;11959;49.418;8.728;2022-07-01T02:36:25;16.10;99.90
23562;DHT22;11959;49.418;8.728;2022-07-01T02:38:51;16.00;99.90
23562;DHT22;11959;49.418;8.728;2022-07-01T02:41:17;16.00;99.90
23562;DHT22;11959;49.418;8.728;2022-07-01T02:43:43;16.10;99.90
23562;DHT22;11959;49.418;8.728;2022-07-01T02:46:08;16.10;99.90
23562;DHT22;11959;49.418;8.728;2022-07-01T02:48:34;16.00;99.90
23562;DHT22;11959;49.418;8.728;2022-07-01T02:51:00;16.10;99.90
23562;DHT22;11959;49.418;8.728;2022-07-01T02:53:25;16.10;99.90
23562;DHT22;11959;49.418;8.728;2022-07-01T02:55:51;16.10;99.90
23562;DHT22;11959;49.418;8.728;2022-07-01T02:58:17;16.20;99.90
23562;DHT22;11959;49.418;8.728;2022-07-01T03:00:42;16.20;99.90
23562;DHT22;11959;49.418;8.728;2022-07-01T03:03:08;16.30;99.90
23562;DHT22;11959;49.418;8.728;2022-07-01T03:05:34;16.20;99.90
23562;DHT22;11959;49.418;8.728;2022-07-01T03:07:59;16.30;99.90
23562;DHT22;11959;49.418;8.728;2022-07-01T03:10:25;16.30;99.90
23562;DHT22;11959;49.418;8.728;2022-07-01T03:12:52;16.20;99.90
23562;DHT22;11959;49.418;8.728;2022-07-01T03:15:17;16.20;99.90
23562;DHT22;11959;49.418;8.728;2022-07-01T03:17:45;16.20;99.90
23562;DHT22;11959;49.418;8.728;2022-07-01T03:20:16;16.20;99.90
23562;DHT22;11959;49.418;8.728;2022-07-01T03:22:43;16.20;99.90
23562;DHT22;11959;49.418;8.728;2022-07-01T03:25:09;16.20;99.90
23562;DHT22;11959;49.418;8.728;2022-07-01T03:27:36;16.10;99.90
23562;DHT22;11959;49.418;8.728;2022-07-01T03:30:03;16.10;99.90
23562;DHT22;11959;49.418;8.728;2022-07-01T03:32:29;16.10;99.90
23562;DHT22;11959;49.418;8.728;2022-07-01T03:34:55;16.10;99.90
23562;DHT22;11959;49.418;8.728;2022-07-01T03:37:21;16.10;99.90
23562;DHT22;11959;49.418;8.728;2022-07-01T03:39:48;16.20;99.90
23562;DHT22;11959;49.418;8.728;2022-07-01T03:42:14;16.10;99.90
23562;DHT22;11959;49.418;8.728;2022-07-01T03:44:39;16.10;99.90
23562;DHT22;11959;49.418;8.728;2022-07-01T03:47:06;16.10;99.90
23562;DHT22;11959;49.418;8.728;2022-07-01T03:49:33;16.10;99.90
23562;DHT22;11959;49.418;8.728;2022-07-01T03:51:58;16.10;99.90
23562;DHT22;11959;49.418;8.728;2022-07-01T03:54:24;16.10;99.90
23562;DHT22;11959;49.418;8.728;2022-07-01T03:57:00;16.10;99.90
23562;DHT22;11959;49.418;8.728;2022-07-01T03:59:27;16.10;99.90
23562;DHT22;11959;49.418;8.728;2022-07-01T04:01:53;16.00;99.90
23562;DHT22;11959;49.418;8.728;2022-07-01T04:04:19;16.00;99.90
23562;DHT22;11959;49.418;8.728;2022-07-01T04:06:46;15.90;99.90
23562;DHT22;11959;49.418;8.728;2022-07-01T04:09:14;16.00;99.90
23562;DHT22;11959;49.418;8.728;2022-07-01T04:11:42;16.00;99.90
23562;DHT22;11959;49.418;8.728;2022-07-01T04:14:09;16.00;99.90
23562;DHT22;11959;49.418;8.728;2022-07-01T04:16:34;16.00;99.90
23562;DHT22;11959;49.418;8.728;2022-07-01T04:19:00;16.00;99.90
23562;DHT22;11959;49.418;8.728;2022-07-01T04:21:26;16.00;99.90
23562;DHT22;11959;49.418;8.728;2022-07-01T04:24:10;16.10;99.90
23562;DHT22;11959;49.418;8.728;2022-07-01T04:26:36;16.10;99.90
23562;DHT22;11959;49.418;8.728;2022-07-01T04:29:02;16.00;99.90
23562;DHT22;11959;49.418;8.728;2022-07-01T04:31:28;16.00;99.90
23562;DHT22;11959;49.418;8.728;2022-07-01T04:33:53;16.00;99.90
23562;DHT22;11959;49.418;8.728;2022-07-01T04:36:19;15.90;99.90
23562;DHT22;11959;49.418;8.728;2022-07-01T04:38:45;16.00;99.90
23562;DHT22;11959;49.418;8.728;2022-07-01T04:41:11;16.00;99.90
23562;DHT22;11959;49.418;8.728;2022-07-01T04:43:55;16.00;99.90
23562;DHT22;11959;49.418;8.728;2022-07-01T04:46:21;15.90;99.90
23562;DHT22;11959;49.418;8.728;2022-07-01T04:48:46;16.00;99.90
23562;DHT22;11959;49.418;8.728;2022-07-01T04:51:12;16.00;99.90
23562;DHT22;11959;49.418;8.728;2022-07-01T04:53:38;16.00;99.90
23562;DHT22;11959;49.418;8.728;2022-07-01T04:56:03;16.10;99.90
23562;DHT22;11959;49.418;8.728;2022-07-01T04:58:29;16.10;99.90
23562;DHT22;11959;49.418;8.728;2022-07-01T05:00:55;16.10;99.90
23562;DHT22;11959;49.418;8.728;2022-07-01T05:03:20;16.20;99.90
23562;DHT22;11959;49.418;8.728;2022-07-01T05:05:46;16.10;99.90
23562;DHT22;11959;49.418;8.728;2022-07-01T05:08:12;16.10;99.90
23562;DHT22;11959;49.418;8.728;2022-07-01T05:10:37;16.20;99.90
23562;DHT22;11959;49.418;8.728;2022-07-01T05:13:03;16.20;99.90
23562;DHT22;11959;49.418;8.728;2022-07-01T05:15:29;16.20;99.90
23562;DHT22;11959;49.418;8.728;2022-07-01T05:17:55;16.20;99.90
23562;DHT22;11959;49.418;8.728;2022-07-01T05:20:39;16.20;99.90
23562;DHT22;11959;49.418;8.728;2022-07-01T05:23:23;16.20;99.90
23562;DHT22;11959;49.418;8.728;2022-07-01T05:25:49;16.20;99.90
23562;DHT22;11959;49.418;8.728;2022-07-01T05:28:14;16.20;99.90
23562;DHT22;11959;49.418;8.728;2022-07-01T05:30:40;16.20;99.90
23562;DHT22;11959;49.418;8.728;2022-07-01T05:33:06;16.20;99.90
23562;DHT22;11959;49.418;8.728;2022-07-01T05:35:31;16.00;99.90
23562;DHT22;11959;49.418;8.728;2022-07-01T05:37:57;16.00;99.90
23562;DHT22;11959;49.418;8.728;2022-07-01T05:40:24;16.00;99.90
23562;DHT22;11959;49.418;8.728;2022-07-01T05:42:51;15.90;99.90
23562;DHT22;11959;49.418;8.728;2022-07-01T05:45:17;15.90;99.90
23562;DHT22;11959;49.418;8.728;2022-07-01T05:47:43;15.90;99.90
23562;DHT22;11959;49.418;8.728;2022-07-01T05:50:08;15.90;99.90
23562;DHT22;11959;49.418;8.728;2022-07-01T05:52:34;15.90;99.90
23562;DHT22;11959;49.418;8.728;2022-07-01T05:55:00;15.90;99.90
23562;DHT22;11959;49.418;8.728;2022-07-01T05:57:26;15.90;99.90
23562;DHT22;11959;49.418;8.728;2022-07-01T05:59:52;15.90;99.90
23562;DHT22;11959;49.418;8.728;2022-07-01T06:02:17;15.90;99.90
23562;DHT22;11959;49.418;8.728;2022-07-01T06:04:43;15.90;99.90
23562;DHT22;11959;49.418;8.728;2022-07-01T06:07:09;15.80;99.90
23562;DHT22;11959;49.418;8.728;2022-07-01T06:09:38;15.80;99.90
23562;DHT22;11959;49.418;8.728;2022-07-01T06:12:05;15.80;99.90
23562;DHT22;11959;49.418;8.728;2022-07-01T06:14:30;15.80;99.90
23562;DHT22;11959;49.418;8.728;2022-07-01T06:16:56;15.90;99.90
23562;DHT22;11959;49.418;8.728;2022-07-01T06:19:22;15.80;99.90
23562;DHT22;11959;49.418;8.728;2022-07-01T06:21:48;15.80;99.90
23562;DHT22;11959;49.418;8.728;2022-07-01T06:24:13;15.80;99.90
23562;DHT22;11959;49.418;8.728;2022-07-01T06:26:39;15.80;99.90
23562;DHT22;11959;49.418;8.728;2022-07-01T06:29:05;15.80;99.90
23562;DHT22;11959;49.418;8.728;2022-07-01T06:31:30;15.80;99.90
23562;DHT22;11959;49.418;8.728;2022-07-01T06:33:59;15.80;99.90
23562;DHT22;11959;49.418;8.728;2022-07-01T06:36:25;15.80;99.90
23562;DHT22;11959;49.418;8.728;2022-07-01T06:38:51;15.80;99.90
23562;DHT22;11959;49.418;8.728;2022-07-01T06:41:16;15.80;99.90
23562;DHT22;11959;49.418;8.728;2022-07-01T06:43:59;15.70;99.90
23562;DHT22;11959;49.418;8.728;2022-07-01T06:46:25;15.70;99.90
23562;DHT22;11959;49.418;8.728;2022-07-01T06:48:51;15.70;99.90
23562;DHT22;11959;49.418;8.728;2022-07-01T06:51:17;15.70;99.90
23562;DHT22;11959;49.418;8.728;2022-07-01T06:53:43;15.70;99.90
23562;DHT22;11959;49.418;8.728;2022-07-01T06:56:11;15.70;99.90
23562;DHT22;11959;49.418;8.728;2022-07-01T06:58:37;15.60;99.90
23562;DHT22;11959;49.418;8.728;2022-07-01T07:01:03;15.60;99.90
23562;DHT22;11959;49.418;8.728;2022-07-01T07:03:30;15.60;99.90
23562;DHT22;11959;49.418;8.728;2022-07-01T07:05:58;15.60;99.90
23562;DHT22;11959;49.418;8.728;2022-07-01T07:08:26;15.60;99.90
23562;DHT22;11959;49.418;8.728;2022-07-01T07:10:51;15.60;99.90
23562;DHT22;11959;49.418;8.728;2022-07-01T07:13:17;15.50;99.90
23562;DHT22;11959;49.418;8.728;2022-07-01T07:15:43;15.50;99.90
23562;DHT22;11959;49.418;8.728;2022-07-01T07:18:08;15.50;99.90
23562;DHT22;11959;49.418;8.728;2022-07-01T07:20:34;15.50;99.90
23562;DHT22;11959;49.418;8.728;2022-07-01T07:23:00;15.50;99.90
23562;DHT22;11959;49.418;8.728;2022-07-01T07:25:26;15.50;99.90
23562;DHT22;11959;49.418;8.728;2022-07-01T07:27:52;15.60;99.90
23562;DHT22;11959;49.418;8.728;2022-07-01T07:30:18;15.60;99.90
23562;DHT22;11959;49.418;8.728;2022-07-01T07:32:44;15.60;99.90
23562;DHT22;11959;49.418;8.728;2022-07-01T07:35:11;15.60;99.90
23562;DHT22;11959;49.418;8.728;2022-07-01T07:37:37;15.60;99.90
23562;DHT22;11959;49.418;8.728;2022-07-01T07:40:04;15.60;99.90
23562;DHT22;11959;49.418;8.728;2022-07-01T07:42:32;15.70;99.90
23562;DHT22;11959;49.418;8.728;2022-07-01T07:44:58;15.70;99.90
23562;DHT22;11959;49.418;8.728;2022-07-01T07:47:24;15.70;99.90
23562;DHT22;11959;49.418;8.728;2022-07-01T07:49:49;15.70;99.90
23562;DHT22;11959;49.418;8.728;2022-07-01T07:52:15;15.80;99.90
23562;DHT22;11959;49.418;8.728;2022-07-01T07:54:40;15.80;99.90
23562;DHT22;11959;49.418;8.728;2022-07-01T07:57:06;15.90;99.90
23562;DHT22;11959;49.418;8.728;2022-07-01T07:59:33;16.00;99.90
23562;DHT22;11959;49.418;8.728;2022-07-01T08:01:59;16.00;99.90
23562;DHT22;11959;49.418;8.728;2022-07-01T08:04:25;16.10;99.90
23562;DHT22;11959;49.418;8.728;2022-07-01T08:06:50;16.10;99.90
23562;DHT22;11959;49.418;8.728;2022-07-01T08:09:16;16.20;99.90
23562;DHT22;11959;49.418;8.728;2022-07-01T08:11:41;16.20;99.90
23562;DHT22;11959;49.418;8.728;2022-07-01T08:14:07;16.30;99.90
23562;DHT22;11959;49.418;8.728;2022-07-01T08:16:33;16.30;99.90
23562;DHT22;11959;49.418;8.728;2022-07-01T08:18:59;16.40;99.90
23562;DHT22;11959;49.418;8.728;2022-07-01T08:21:24;16.40;99.90
23562;DHT22;11959;49.418;8.728;2022-07-01T08:23:50;16.50;99.90
23562;DHT22;11959;49.418;8.728;2022-07-01T08:26:16;16.50;99.90
23562;DHT22;11959;49.418;8.728;2022-07-01T08:28:43;16.60;99.90
23562;DHT22;11959;49.418;8.728;2022-07-01T08:31:09;16.60;99.90
23562;DHT22;11959;49.418;8.728;2022-07-01T08:33:34;16.60;99.90
23562;DHT22;11959;49.418;8.728;2022-07-01T08:36:00;16.60;99.90
23562;DHT22;11959;49.418;8.728;2022-07-01T08:38:26;16.60;99.90
23562;DHT22;11959;49.418;8.728;2022-07-01T08:40:52;16.60;99.90
23562;DHT22;11959;49.418;8.728;2022-07-01T08:43:17;16.60;99.90
23562;DHT22;11959;49.418;8.728;2022-07-01T08:45:43;16.60;99.90
23562;DHT22;11959;49.418;8.728;2022-07-01T08:48:09;16.50;99.90
23562;DHT22;11959;49.418;8.728;2022-07-01T08:50:37;16.50;99.90
23562;DHT22;11959;49.418;8.728;2022-07-01T08:53:04;16.50;99.90
23562;DHT22;11959;49.418;8.728;2022-07-01T08:55:30;16.50;99.90
23562;DHT22;11959;49.418;8.728;2022-07-01T08:57:56;16.40;99.90
23562;DHT22;11959;49.418;8.728;2022-07-01T09:00:28;16.40;99.90
23562;DHT22;11959;49.418;8.728;2022-07-01T09:03:00;16.40;99.90
23562;DHT22;11959;49.418;8.728;2022-07-01T09:05:27;16.40;99.90
23562;DHT22;11959;49.418;8.728;2022-07-01T09:07:58;16.40;99.90
23562;DHT22;11959;49.418;8.728;2022-07-01T09:10:25;16.30;99.90
23562;DHT22;11959;49.418;8.728;2022-07-01T09:12:51;16.20;99.90
23562;DHT22;11959;49.418;8.728;2022-07-01T09:15:27;16.10;99.90
23562;DHT22;11959;49.418;8.728;2022-07-01T09:17:56;16.10;99.90
23562;DHT22;11959;49.418;8.728;2022-07-01T09:20:30;16.00;99.90
23562;DHT22;11959;49.418;8.728;2022-07-01T09:22:58;16.10;99.90
23562;DHT22;11959;49.418;8.728;2022-07-01T09:25:52;16.10;99.90
23562;DHT22;11959;49.418;8.728;2022-07-01T09:28:18;16.20;99.90
23562;DHT22;11959;49.418;8.728;2022-07-01T09:30:47;16.30;99.90
23562;DHT22;11959;49.418;8.728;2022-07-01T09:35:41;16.50;99.90
23562;DHT22;11959;49.418;8.728;2022-07-01T09:38:10;16.60;99.90
23562;DHT22;11959;49.418;8.728;2022-07-01T09:40:57;16.80;99.90
23562;DHT22;11959;49.418;8.728;2022-07-01T09:43:24;17.00;99.90
23562;DHT22;11959;49.418;8.728;2022-07-01T09:45:59;17.20;99.90
23562;DHT22;11959;49.418;8.728;2022-07-01T09:48:41;17.50;99.90
23562;DHT22;11959;49.418;8.728;2022-07-01T09:51:08;17.70;99.90
23562;DHT22;11959;49.418;8.728;2022-07-01T09:53:34;17.80;99.90
23562;DHT22;11959;49.418;8.728;2022-07-01T09:56:01;17.80;99.90
23562;DHT22;11959;49.418;8.728;2022-07-01T09:58:26;17.80;99.90
23562;DHT22;11959;49.418;8.728;2022-07-01T10:00:54;17.70;99.90
23562;DHT22;11959;49.418;8.728;2022-07-01T10:03:20;17.70;99.90
23562;DHT22;11959;49.418;8.728;2022-07-01T10:13:44;17.40;99.90
23562;DHT22;11959;49.418;8.728;2022-07-01T10:16:11;17.40;99.90
23562;DHT22;11959;49.418;8.728;2022-07-01T10:18:37;17.40;99.90
23562;DHT22;11959;49.418;8.728;2022-07-01T10:21:03;17.50;99.90
23562;DHT22;11959;49.418;8.728;2022-07-01T10:23:42;17.70;99.90
23562;DHT22;11959;49.418;8.728;2022-07-01T10:26:09;17.70;99.90
23562;DHT22;11959;49.418;8.728;2022-07-01T10:31:10;17.90;99.90
23562;DHT22;11959;49.418;8.728;2022-07-01T10:36:14;17.90;99.90
23562;DHT22;11959;49.418;8.728;2022-07-01T10:44:14;18.60;99.90
23562;DHT22;11959;49.418;8.728;2022-07-01T10:49:16;18.80;99.90
23562;DHT22;11959;49.418;8.728;2022-07-01T10:54:11;18.90;99.90
23562;DHT22;11959;49.418;8.728;2022-07-01T10:56:39;18.90;99.90
23562;DHT22;11959;49.418;8.728;2022-07-01T10:59:06;18.90;99.90
23562;DHT22;11959;49.418;8.728;2022-07-01T11:01:32;19.10;99.90
23562;DHT22;11959;49.418;8.728;2022-07-01T11:03:57;19.30;99.90
23562;DHT22;11959;49.418;8.728;2022-07-01T11:06:24;19.50;99.90
23562;DHT22;11959;49.418;8.728;2022-07-01T11:08:50;19.60;99.90
23562;DHT22;11959;49.418;8.728;2022-07-01T11:11:16;19.80;99.90
23562;DHT22;11959;49.418;8.728;2022-07-01T11:13:43;19.60;99.90
23562;DHT22;11959;49.418;8.728;2022-07-01T11:16:09;19.60;99.90
23562;DHT22;11959;49.418;8.728;2022-07-01T11:18:35;19.90;99.90
23562;DHT22;11959;49.418;8.728;2022-07-01T11:21:08;20.10;99.90
23562;DHT22;11959;49.418;8.728;2022-07-01T11:23:34;20.30;99.90
23562;DHT22;11959;49.418;8.728;2022-07-01T11:26:00;20.60;99.90
23562;DHT22;11959;49.418;8.728;2022-07-01T11:28:26;20.90;99.90
23562;DHT22;11959;49.418;8.728;2022-07-01T11:31:00;21.00;99.90
23562;DHT22;11959;49.418;8.728;2022-07-01T11:33:26;21.10;99.90
23562;DHT22;11959;49.418;8.728;2022-07-01T11:35:51;21.20;99.90
23562;DHT22;11959;49.418;8.728;2022-07-01T11:38:36;21.40;99.90
23562;DHT22;11959;49.418;8.728;2022-07-01T11:41:22;21.40;99.90
23562;DHT22;11959;49.418;8.728;2022-07-01T11:43:50;21.60;99.90
23562;DHT22;11959;49.418;8.728;2022-07-01T11:46:16;21.60;99.90
23562;DHT22;11959;49.418;8.728;2022-07-01T11:48:48;21.40;99.90
23562;DHT22;11959;49.418;8.728;2022-07-01T11:51:23;21.30;99.90
23562;DHT22;11959;49.418;8.728;2022-07-01T11:53:53;21.10;99.90
23562;DHT22;11959;49.418;8.728;2022-07-01T11:56:30;21.00;99.90
23562;DHT22;11959;49.418;8.728;2022-07-01T11:58:57;20.60;99.90
23562;DHT22;11959;49.418;8.728;2022-07-01T12:01:29;20.60;99.90
23562;DHT22;11959;49.418;8.728;2022-07-01T12:03:57;20.70;99.90
23562;DHT22;11959;49.418;8.728;2022-07-01T12:06:23;20.80;99.90
23562;DHT22;11959;49.418;8.728;2022-07-01T12:08:50;20.70;99.90
23562;DHT22;11959;49.418;8.728;2022-07-01T12:11:17;20.80;99.90
23562;DHT22;11959;49.418;8.728;2022-07-01T12:13:44;20.80;99.90
23562;DHT22;11959;49.418;8.728;2022-07-01T12:16:11;20.80;99.90
23562;DHT22;11959;49.418;8.728;2022-07-01T12:18:37;20.70;99.90
23562;DHT22;11959;49.418;8.728;2022-07-01T12:21:03;20.60;99.90
23562;DHT22;11959;49.418;8.728;2022-07-01T12:23:29;20.70;99.90
23562;DHT22;11959;49.418;8.728;2022-07-01T12:25:55;20.80;99.90
23562;DHT22;11959;49.418;8.728;2022-07-01T12:28:38;21.00;99.90
23562;DHT22;11959;49.418;8.728;2022-07-01T12:31:08;21.20;99.90
23562;DHT22;11959;49.418;8.728;2022-07-01T12:33:39;21.30;99.90
23562;DHT22;11959;49.418;8.728;2022-07-01T12:36:06;21.40;99.90
23562;DHT22;11959;49.418;8.728;2022-07-01T12:38:33;21.40;99.90
23562;DHT22;11959;49.418;8.728;2022-07-01T12:40:59;21.40;99.90
23562;DHT22;11959;49.418;8.728;2022-07-01T12:43:25;21.40;99.90
23562;DHT22;11959;49.418;8.728;2022-07-01T12:45:58;21.40;99.90
23562;DHT22;11959;49.418;8.728;2022-07-01T12:48:25;21.30;99.90
23562;DHT22;11959;49.418;8.728;2022-07-01T12:50:55;21.30;99.90
23562;DHT22;11959;49.418;8.728;2022-07-01T12:53:22;21.20;99.90
23562;DHT22;11959;49.418;8.728;2022-07-01T12:55:56;21.10;99.90
23562;DHT22;11959;49.418;8.728;2022-07-01T12:58:25;21.20;99.90
23562;DHT22;11959;49.418;8.728;2022-07-01T13:00:55;21.30;99.90
23562;DHT22;11959;49.418;8.728;2022-07-01T13:03:24;21.30;99.90
23562;DHT22;11959;49.418;8.728;2022-07-01T13:05:51;21.40;99.90
23562;DHT22;11959;49.418;8.728;2022-07-01T13:08:17;21.50;99.90
23562;DHT22;11959;49.418;8.728;2022-07-01T13:10:44;21.50;99.90
23562;DHT22;11959;49.418;8.728;2022-07-01T13:13:10;21.70;99.90
23562;DHT22;11959;49.418;8.728;2022-07-01T13:15:36;21.90;99.90
23562;DHT22;11959;49.418;8.728;2022-07-01T13:18:02;22.00;99.90
23562;DHT22;11959;49.418;8.728;2022-07-01T13:20:28;22.10;99.90
23562;DHT22;11959;49.418;8.728;2022-07-01T13:22:54;22.00;99.90
23562;DHT22;11959;49.418;8.728;2022-07-01T13:25:20;21.90;99.90
23562;DHT22;11959;49.418;8.728;2022-07-01T13:27:47;21.90;99.90
23562;DHT22;11959;49.418;8.728;2022-07-01T13:30:13;22.00;99.90
23562;DHT22;11959;49.418;8.728;2022-07-01T13:32:40;21.90;99.90
23562;DHT22;11959;49.418;8.728;2022-07-01T13:35:09;21.80;99.90
23562;DHT22;11959;49.418;8.728;2022-07-01T13:37:35;21.80;99.90
23562;DHT22;11959;49.418;8.728;2022-07-01T13:40:01;21.70;99.90
23562;DHT22;11959;49.418;8.728;2022-07-01T13:42:27;21.70;99.90
23562;DHT22;11959;49.418;8.728;2022-07-01T13:44:53;21.70;99.90
23562;DHT22;11959;49.418;8.728;2022-07-01T13:47:18;21.60;99.90
23562;DHT22;11959;49.418;8.728;2022-07-01T13:49:44;21.70;99.90
23562;DHT22;11959;49.418;8.728;2022-07-01T13:52:11;21.60;99.90
23562;DHT22;11959;49.418;8.728;2022-07-01T13:54:37;21.60;99.90
23562;DHT22;11959;49.418;8.728;2022-07-01T13:57:04;21.60;99.90
23562;DHT22;11959;49.418;8.728;2022-07-01T13:59:31;21.70;99.90
23562;DHT22;11959;49.418;8.728;2022-07-01T14:01:57;21.60;99.90
23562;DHT22;11959;49.418;8.728;2022-07-01T14:04:23;21.70;99.90
23562;DHT22;11959;49.418;8.728;2022-07-01T14:06:49;21.70;99.90
23562;DHT22;11959;49.418;8.728;2022-07-01T14:09:15;21.70;99.90
23562;DHT22;11959;49.418;8.728;2022-07-01T14:11:40;21.90;99.90
23562;DHT22;11959;49.418;8.728;2022-07-01T14:14:06;22.10;99.90
23562;DHT22;11959;49.418;8.728;2022-07-01T14:16:32;22.10;99.90
23562;DHT22;11959;49.418;8.728;2022-07-01T14:18:58;22.00;99.90
23562;DHT22;11959;49.418;8.728;2022-07-01T14:21:23;22.20;99.90
23562;DHT22;11959;49.418;8.728;2022-07-01T14:23:49;22.20;99.90
23562;DHT22;11959;49.418;8.728;2022-07-01T14:26:15;22.20;99.90
23562;DHT22;11959;49.418;8.728;2022-07-01T14:28:41;22.20;99.90
23562;DHT22;11959;49.418;8.728;2022-07-01T14:31:07;22.20;99.90
23562;DHT22;11959;49.418;8.728;2022-07-01T14:33:33;22.30;99.90
23562;DHT22;11959;49.418;8.728;2022-07-01T14:35:59;22.20;99.90
23562;DHT22;11959;49.418;8.728;2022-07-01T14:38:24;22.30;99.90
23562;DHT22;11959;49.418;8.728;2022-07-01T14:40:50;22.30;99.90
23562;DHT22;11959;49.418;8.728;2022-07-01T14:43:16;22.30;99.90
23562;DHT22;11959;49.418;8.728;2022-07-01T14:45:42;22.50;99.90
23562;DHT22;11959;49.418;8.728;2022-07-01T14:48:08;22.60;99.90
23562;DHT22;11959;49.418;8.728;2022-07-01T14:50:34;22.70;99.90
23562;DHT22;11959;49.418;8.728;2022-07-01T14:53:00;22.80;99.90
23562;DHT22;11959;49.418;8.728;2022-07-01T14:55:27;22.90;99.90
23562;DHT22;11959;49.418;8.728;2022-07-01T14:57:53;23.00;99.10
23562;DHT22;11959;49.418;8.728;2022-07-01T15:00:19;23.00;99.20
23562;DHT22;11959;49.418;8.728;2022-07-01T15:02:44;23.10;99.40
23562;DHT22;11959;49.418;8.728;2022-07-01T15:05:10;23.20;99.00
23562;DHT22;11959;49.418;8.728;2022-07-01T15:07:36;23.20;99.90
23562;DHT22;11959;49.418;8.728;2022-07-01T15:10:03;23.30;98.40
23562;DHT22;11959;49.418;8.728;2022-07-01T15:12:30;23.30;99.80
23562;DHT22;11959;49.418;8.728;2022-07-01T15:14:55;23.30;99.40
23562;DHT22;11959;49.418;8.728;2022-07-01T15:17:22;23.10;99.40
23562;DHT22;11959;49.418;8.728;2022-07-01T15:19:48;23.00;99.10
23562;DHT22;11959;49.418;8.728;2022-07-01T15:22:14;22.80;98.70
23562;DHT22;11959;49.418;8.728;2022-07-01T15:24:40;22.70;99.90
23562;DHT22;11959;49.418;8.728;2022-07-01T15:27:06;22.50;99.90
23562;DHT22;11959;49.418;8.728;2022-07-01T15:29:32;22.30;99.90
23562;DHT22;11959;49.418;8.728;2022-07-01T15:31:59;22.20;99.90
23562;DHT22;11959;49.418;8.728;2022-07-01T15:34:25;22.10;99.90
23562;DHT22;11959;49.418;8.728;2022-07-01T15:36:51;22.00;99.90
23562;DHT22;11959;49.418;8.728;2022-07-01T15:39:16;21.90;99.90
23562;DHT22;11959;49.418;8.728;2022-07-01T15:41:43;21.70;99.90
23562;DHT22;11959;49.418;8.728;2022-07-01T15:44:09;21.60;99.90
23562;DHT22;11959;49.418;8.728;2022-07-01T15:46:35;21.60;99.90
23562;DHT22;11959;49.418;8.728;2022-07-01T15:49:04;21.70;99.90
23562;DHT22;11959;49.418;8.728;2022-07-01T15:51:34;21.80;99.90
23562;DHT22;11959;49.418;8.728;2022-07-01T15:54:01;22.10;99.90